Anna, Ohio
Current Conditions -  °F | °C
As of 11:52 AM on Monday 22 Dec 2014 (Local Time) from KAXV Reporting Station
Broken Clouds Broken Clouds  
Wind Chill:   Ceiling: 10000
Heat Index:   Visibility: 10mi
Dew Point:   Wind: 7mph
Humidity: 81%   Direction: 120°ESE
Pressure: 29.96"   Gusts: NA
Location:  40.39°N, 84.17°W
Report Text: KAXV 221652Z AUTO 12006KT 10SM SCT050 BKN100 04/01 A2996 RMK AO2
Loading
Personal Weather Stations






























Interactive Weather Map New forecast layout! Learn more

10-Day Weather Forecast

Advertisements
Track Severe Weather on mobile